Airport View

Enter AWOS ICAO identifier for current METAR.

ex. KFNL

PALH 080553Z 19006KT 10SM SCT055 BKN080 OVC110 16/08 A2962 RMK AO2 SLP030 T01610083 10206 20161 51023

8 Aug 2020 06:29

Phone: 907-245-1618

Other Area AWOS: PANC - PAMR - PAED - PAFR

TAF PANC 080537Z 0806/0912 22006KT P6SM VCSH FEW060 SCT110 BKN250 FM081000 15007KT P6SM VCSH SCT050 OVC080 FM090600 15008KT P6SM -SHRA BKN050